createdAt,value
2022-11-23T00:01:29.185Z,51.40
2022-11-23T00:03:58.587Z,59.90
2022-11-23T00:06:26.567Z,57.03
2022-11-23T00:08:54.586Z,59.10
2022-11-23T00:11:23.621Z,53.15
2022-11-23T00:13:51.085Z,47.67
2022-11-23T00:16:20.867Z,54.08
2022-11-23T00:18:48.155Z,62.85
2022-11-23T00:21:17.023Z,57.70
2022-11-23T00:23:45.313Z,55.08
2022-11-23T00:26:12.603Z,53.53
2022-11-23T00:28:40.741Z,58.10
2022-11-23T00:31:08.311Z,50.85
2022-11-23T00:33:35.808Z,60.47
2022-11-23T00:36:08.840Z,65.53
2022-11-23T00:38:35.776Z,60.60
2022-11-23T00:41:05.813Z,62.25
2022-11-23T00:43:33.935Z,63.75
2022-11-23T00:46:13.993Z,51.80
2022-11-23T00:48:41.298Z,58.33
2022-11-23T00:51:11.004Z,54.38
2022-11-23T00:53:38.358Z,57.80
2022-11-23T00:56:05.636Z,48.10
2022-11-23T00:58:32.575Z,55.20
2022-11-23T01:01:06.153Z,58.88
2022-11-23T01:03:33.364Z,48.92
2022-11-23T01:06:11.953Z,55.55
2022-11-23T01:08:39.308Z,49.42
2022-11-23T01:11:09.712Z,63.13
2022-11-23T01:13:38.166Z,40.40
2022-11-23T01:16:07.594Z,51.08
2022-11-23T01:18:34.397Z,54.25
2022-11-23T01:21:02.029Z,52.65
2022-11-23T01:23:30.280Z,55.65
2022-11-23T01:25:57.427Z,43.72
2022-11-23T01:28:24.541Z,45.38
2022-11-23T01:30:51.281Z,51.30
2022-11-23T01:33:18.137Z,52.50
2022-11-23T01:35:44.912Z,50.35
2022-11-23T01:38:17.842Z,51.60
2022-11-23T01:40:45.151Z,45.35
2022-11-23T01:43:17.768Z,55.22
2022-11-23T01:46:05.724Z,45.67
2022-11-23T01:48:36.728Z,42.80
2022-11-23T01:51:07.051Z,44.72
2022-11-23T01:53:34.196Z,45.60
2022-11-23T01:56:04.583Z,45.65
2022-11-23T01:58:37.320Z,40.83
2022-11-23T02:01:04.408Z,40.28
2022-11-23T02:03:32.610Z,49.95
2022-11-23T02:06:03.129Z,49.22
2022-11-23T02:08:30.807Z,35.05
2022-11-23T02:10:59.046Z,46.85
2022-11-23T02:13:29.017Z,48.83
2022-11-23T02:15:57.910Z,53.30
2022-11-23T02:18:28.600Z,50.70
2022-11-23T02:20:57.019Z,40.20
2022-11-23T02:23:53.864Z,45.55
2022-11-23T02:26:26.791Z,40.25
2022-11-23T02:28:58.412Z,45.08
2022-11-23T02:31:25.520Z,46.63
2022-11-23T02:33:52.288Z,41.03
2022-11-23T02:36:22.264Z,41.08
2022-11-23T02:38:49.148Z,44.00
2022-11-23T02:41:15.933Z,39.53
2022-11-23T02:43:43.197Z,38.55
2022-11-23T02:46:10.324Z,40.55
2022-11-23T02:48:37.077Z,40.58
2022-11-23T02:51:03.874Z,42.88
2022-11-23T02:53:30.651Z,40.22
2022-11-23T02:55:57.470Z,39.80
2022-11-23T02:58:24.310Z,44.28
2022-11-23T03:00:51.164Z,40.65
2022-11-23T03:03:18.079Z,40.38
2022-11-23T03:05:44.855Z,46.78
2022-11-23T03:08:11.714Z,40.80
2022-11-23T03:10:38.524Z,34.75
2022-11-23T03:13:05.287Z,36.63
2022-11-23T03:15:33.067Z,39.78
2022-11-23T03:17:59.889Z,43.45
2022-11-23T03:20:26.796Z,35.03
2022-11-23T03:22:54.005Z,32.72
2022-11-23T03:25:20.783Z,36.97
2022-11-23T03:27:47.644Z,29.50
2022-11-23T03:30:14.972Z,35.90
2022-11-23T03:32:41.812Z,35.25
2022-11-23T03:35:09.028Z,31.67
2022-11-23T03:37:35.832Z,31.30
2022-11-23T03:40:02.666Z,31.10
2022-11-23T03:42:29.508Z,31.17
2022-11-23T03:44:56.305Z,38.05
2022-11-23T03:47:23.100Z,31.23
2022-11-23T03:49:49.912Z,33.72
2022-11-23T03:52:16.847Z,31.83
2022-11-23T03:54:43.610Z,36.05
2022-11-23T03:57:10.394Z,36.33
2022-11-23T03:59:37.143Z,28.15
2022-11-23T04:02:04.058Z,31.52
2022-11-23T04:04:30.831Z,26.98
2022-11-23T04:06:57.574Z,24.30
2022-11-23T04:09:24.466Z,26.17
2022-11-23T04:11:51.554Z,30.45
2022-11-23T04:14:18.409Z,26.77
2022-11-23T04:16:45.255Z,33.05
2022-11-23T04:19:12.071Z,30.83
2022-11-23T04:21:38.882Z,24.50
2022-11-23T04:24:05.995Z,31.95
2022-11-23T04:26:32.910Z,31.63
2022-11-23T04:28:59.668Z,27.58
2022-11-23T04:31:26.415Z,29.90
2022-11-23T04:33:55.916Z,30.30
2022-11-23T04:36:22.789Z,25.38
2022-11-23T04:38:49.706Z,25.67
2022-11-23T04:41:16.706Z,23.08
2022-11-23T04:43:43.493Z,42.60
2022-11-23T04:46:12.093Z,27.52
2022-11-23T04:48:38.894Z,23.05
2022-11-23T04:51:05.922Z,25.98
2022-11-23T04:53:32.762Z,21.52
2022-11-23T04:55:59.554Z,22.90
2022-11-23T04:58:27.887Z,26.00
2022-11-23T05:00:59.208Z,19.38
2022-11-23T05:03:27.169Z,23.40
2022-11-23T05:05:54.011Z,23.83
2022-11-23T05:08:20.799Z,23.25
2022-11-23T05:10:47.647Z,20.40
2022-11-23T05:13:14.872Z,22.33
2022-11-23T05:15:41.720Z,28.48
2022-11-23T05:18:08.600Z,21.38
2022-11-23T05:20:35.405Z,25.65
2022-11-23T05:23:02.389Z,29.02
2022-11-23T05:25:29.182Z,25.52
2022-11-23T05:27:56.022Z,25.77
2022-11-23T05:30:23.338Z,25.15
2022-11-23T05:32:50.294Z,22.38
2022-11-23T05:35:17.240Z,22.08
2022-11-23T05:37:44.029Z,26.50
2022-11-23T05:40:11.947Z,24.25
2022-11-23T05:42:38.724Z,23.75
2022-11-23T05:45:11.141Z,24.42
2022-11-23T05:47:38.456Z,18.40
2022-11-23T05:50:05.810Z,20.92
2022-11-23T05:52:32.734Z,21.15
2022-11-23T05:54:59.496Z,22.35
2022-11-23T05:57:26.349Z,24.13
2022-11-23T05:59:53.156Z,18.70
2022-11-23T06:02:19.913Z,26.83
2022-11-23T06:04:46.764Z,20.00
2022-11-23T06:07:13.672Z,16.13
2022-11-23T06:09:40.565Z,19.08
2022-11-23T06:12:07.534Z,16.20
2022-11-23T06:14:34.322Z,24.95
2022-11-23T06:17:01.117Z,21.85
2022-11-23T06:19:30.506Z,26.45
2022-11-23T06:21:58.083Z,16.83
2022-11-23T06:24:25.330Z,23.33
2022-11-23T06:26:52.694Z,21.60
2022-11-23T06:29:22.824Z,18.42
2022-11-23T06:31:49.633Z,33.97
2022-11-23T06:34:16.525Z,21.52
2022-11-23T06:36:43.460Z,22.38
2022-11-23T06:39:10.407Z,25.38
2022-11-23T06:41:37.243Z,23.80
2022-11-23T06:44:04.172Z,19.98
2022-11-23T06:46:31.110Z,18.08
2022-11-23T06:48:57.930Z,22.90
2022-11-23T06:51:25.042Z,21.98
2022-11-23T06:53:51.814Z,25.73
2022-11-23T06:56:18.662Z,22.88
2022-11-23T06:58:45.512Z,26.50
2022-11-23T07:01:12.643Z,23.95
2022-11-23T07:03:39.698Z,19.13
2022-11-23T07:06:07.904Z,16.75
2022-11-23T07:08:36.344Z,18.75
2022-11-23T07:11:05.624Z,24.08
2022-11-23T07:13:33.150Z,28.42
2022-11-23T07:15:59.996Z,18.45
2022-11-23T07:18:27.021Z,16.58
2022-11-23T07:20:54.009Z,18.33
2022-11-23T07:23:20.801Z,20.42
2022-11-23T07:25:47.633Z,19.70
2022-11-23T07:28:14.523Z,19.38
2022-11-23T07:30:41.768Z,18.10
2022-11-23T07:33:10.789Z,23.90
2022-11-23T07:35:39.569Z,20.17
2022-11-23T07:38:08.506Z,21.95
2022-11-23T07:40:39.129Z,20.75
2022-11-23T07:43:06.919Z,17.48
2022-11-23T07:45:34.644Z,17.08
2022-11-23T07:48:04.799Z,17.98
2022-11-23T07:50:32.456Z,19.58
2022-11-23T07:53:01.290Z,23.38
2022-11-23T07:55:28.609Z,19.40
2022-11-23T07:57:55.637Z,21.75
2022-11-23T08:00:23.732Z,20.35
2022-11-23T08:03:11.792Z,19.20
2022-11-23T08:05:37.383Z,17.52
2022-11-23T08:08:04.319Z,15.63
2022-11-23T08:10:32.156Z,13.27
2022-11-23T08:13:00.443Z,16.38
2022-11-23T08:15:30.898Z,17.30
2022-11-23T08:18:02.509Z,14.10
2022-11-23T08:20:30.522Z,17.05
2022-11-23T08:22:57.649Z,16.17
2022-11-23T08:25:26.102Z,15.00
2022-11-23T08:28:03.734Z,13.98
2022-11-23T08:30:32.466Z,21.83
2022-11-23T08:32:59.777Z,16.05
2022-11-23T08:35:26.569Z,20.65
2022-11-23T08:37:53.415Z,20.38
2022-11-23T08:40:24.967Z,17.00
2022-11-23T08:42:52.386Z,14.80
2022-11-23T08:45:19.253Z,15.63
2022-11-23T08:47:46.092Z,15.68
2022-11-23T08:50:13.461Z,22.83
2022-11-23T08:52:40.341Z,20.83
2022-11-23T08:55:07.417Z,17.63
2022-11-23T08:57:34.431Z,15.60
2022-11-23T09:00:01.321Z,18.17
2022-11-23T09:02:28.143Z,17.40
2022-11-23T09:04:54.992Z,12.60
2022-11-23T09:07:21.794Z,13.57
2022-11-23T09:09:48.647Z,18.42
2022-11-23T09:12:15.467Z,14.32
2022-11-23T09:14:42.385Z,20.25
2022-11-23T09:17:09.194Z,16.98
2022-11-23T09:19:35.955Z,15.93
2022-11-23T09:22:02.786Z,13.68
2022-11-23T09:24:29.799Z,13.73
2022-11-23T09:26:58.421Z,12.57
2022-11-23T09:29:25.588Z,19.27
2022-11-23T09:31:52.938Z,12.25
2022-11-23T09:34:20.081Z,12.00
2022-11-23T09:36:47.586Z,16.60
2022-11-23T09:39:14.575Z,14.48
2022-11-23T09:42:05.029Z,10.90
2022-11-23T09:44:34.813Z,17.10
2022-11-23T09:47:27.656Z,14.18
2022-11-23T09:50:06.338Z,12.10
2022-11-23T09:52:35.450Z,12.50
2022-11-23T09:55:11.671Z,14.15
2022-11-23T09:57:40.875Z,14.40
2022-11-23T10:00:19.908Z,14.02
2022-11-23T10:02:47.394Z,14.13
2022-11-23T10:05:26.168Z,15.57
2022-11-23T10:08:20.666Z,13.88
2022-11-23T10:11:01.679Z,13.57
2022-11-23T10:13:43.200Z,17.90
2022-11-23T10:16:13.003Z,15.00
2022-11-23T10:19:10.387Z,9.25
2022-11-23T10:21:56.735Z,14.45
2022-11-23T10:24:33.916Z,13.07
2022-11-23T10:27:02.701Z,12.70
2022-11-23T10:29:37.183Z,14.85
2022-11-23T10:32:13.808Z,18.73
2022-11-23T10:35:14.088Z,15.07
2022-11-23T10:37:41.193Z,14.50
2022-11-23T10:40:19.900Z,13.48
2022-11-23T10:42:53.824Z,18.48
2022-11-23T10:45:26.219Z,16.05
2022-11-23T10:47:55.217Z,16.75
2022-11-23T10:50:25.993Z,16.65
2022-11-23T10:52:59.366Z,17.58
2022-11-23T10:55:29.983Z,16.90
2022-11-23T10:57:57.890Z,16.10
2022-11-23T11:00:30.522Z,23.10
2022-11-23T11:02:59.536Z,13.70
2022-11-23T11:08:48.388Z,18.60
2022-11-23T11:11:30.507Z,18.88
2022-11-23T11:14:20.676Z,18.33
2022-11-23T11:16:58.422Z,20.00
2022-11-23T11:19:25.226Z,30.65
2022-11-23T11:21:52.036Z,19.27
2022-11-23T11:24:23.344Z,26.70
2022-11-23T11:27:03.699Z,17.05
2022-11-23T11:29:39.095Z,14.38
2022-11-23T11:32:16.293Z,23.30
2022-11-23T11:34:53.819Z,15.88
2022-11-23T11:37:44.854Z,21.17
2022-11-23T11:40:20.530Z,18.92
2022-11-23T11:43:07.605Z,31.33
2022-11-23T11:46:13.187Z,28.25
2022-11-23T11:49:04.986Z,19.63
2022-11-23T11:51:41.365Z,30.20
2022-11-23T11:54:11.242Z,27.08
2022-11-23T11:56:46.617Z,19.70
2022-11-23T11:59:31.476Z,18.70
2022-11-23T12:02:21.929Z,27.15
2022-11-23T12:04:58.193Z,21.17
2022-11-23T12:07:41.318Z,27.10
2022-11-23T12:10:53.311Z,24.67
2022-11-23T12:13:22.897Z,17.77
2022-11-23T12:16:15.453Z,21.60
2022-11-23T12:19:10.906Z,23.25
2022-11-23T12:22:08.266Z,21.75
2022-11-23T12:24:41.056Z,18.92
2022-11-23T12:27:31.342Z,24.38
2022-11-23T12:29:59.717Z,23.38
2022-11-23T12:33:12.535Z,28.52
2022-11-23T12:36:29.772Z,26.30
2022-11-23T12:39:15.140Z,25.33
2022-11-23T12:42:05.353Z,38.03
2022-11-23T12:44:41.320Z,33.17
2022-11-23T12:47:40.297Z,53.35
2022-11-23T12:50:35.528Z,37.22
2022-11-23T12:53:27.179Z,27.67
2022-11-23T12:59:19.753Z,25.20
2022-11-23T13:01:54.232Z,28.40
2022-11-23T13:14:11.150Z,31.88
2022-11-23T13:16:59.242Z,31.73
2022-11-23T13:19:56.848Z,41.95
2022-11-23T13:27:49.190Z,34.03
2022-11-23T13:33:23.704Z,29.30
2022-11-23T13:36:02.305Z,31.48
2022-11-23T13:38:39.268Z,32.13
2022-11-23T13:41:33.881Z,34.38
2022-11-23T13:44:18.791Z,40.95
2022-11-23T13:47:01.942Z,37.35
2022-11-23T13:49:34.702Z,45.60
2022-11-23T13:52:21.315Z,36.10
2022-11-23T13:55:09.856Z,40.00
2022-11-23T13:57:42.179Z,42.67
2022-11-23T14:00:51.707Z,42.88
2022-11-23T14:03:52.141Z,47.65
2022-11-23T14:06:21.834Z,42.25
2022-11-23T14:08:53.581Z,59.17
2022-11-23T14:11:23.214Z,30.42
2022-11-23T14:14:03.448Z,28.92
2022-11-23T14:17:09.242Z,43.60
2022-11-23T14:20:04.083Z,45.80
2022-11-23T14:22:59.083Z,38.50
2022-11-23T14:25:28.637Z,40.30
2022-11-23T14:28:01.072Z,39.42
2022-11-23T14:31:04.422Z,35.10
2022-11-23T14:33:42.740Z,41.65
2022-11-23T14:36:18.550Z,47.22
2022-11-23T14:38:53.948Z,52.13
2022-11-23T14:41:23.676Z,53.15
2022-11-23T14:43:51.224Z,44.35
2022-11-23T14:46:21.384Z,33.53
2022-11-23T14:48:49.620Z,49.72
2022-11-23T14:51:28.233Z,46.72
2022-11-23T14:54:01.479Z,50.05
2022-11-23T14:56:35.703Z,44.45
2022-11-23T14:59:28.982Z,42.42
2022-11-23T15:02:05.726Z,37.00
2022-11-23T15:04:37.179Z,37.08
2022-11-23T15:07:13.329Z,38.00
2022-11-23T15:10:06.394Z,36.25
2022-11-23T15:12:48.429Z,34.85
2022-11-23T15:15:22.352Z,34.97
2022-11-23T15:18:02.665Z,31.55
2022-11-23T15:20:49.710Z,38.60
2022-11-23T15:23:23.306Z,32.60
2022-11-23T15:25:55.174Z,41.72
2022-11-23T15:28:27.348Z,52.72
2022-11-23T15:30:58.290Z,37.33
2022-11-23T15:33:26.260Z,35.83
2022-11-23T15:35:54.855Z,40.63
2022-11-23T15:38:23.785Z,39.33
2022-11-23T15:40:51.304Z,42.00
2022-11-23T15:43:19.946Z,51.63
2022-11-23T15:45:46.820Z,44.97
2022-11-23T15:48:16.216Z,28.13
2022-11-23T15:50:51.558Z,40.80
2022-11-23T15:53:20.833Z,41.80
2022-11-23T15:55:49.867Z,40.50
2022-11-23T15:58:21.334Z,40.03
2022-11-23T16:00:56.299Z,36.17
2022-11-23T16:03:26.180Z,44.50
2022-11-23T16:06:11.379Z,37.88
2022-11-23T16:08:41.047Z,43.88
2022-11-23T16:11:30.332Z,40.40
2022-11-23T16:14:13.623Z,37.05
2022-11-23T16:16:45.540Z,36.97
2022-11-23T16:19:31.644Z,45.25
2022-11-23T16:22:03.306Z,37.13
2022-11-23T16:24:32.539Z,41.90
2022-11-23T16:27:00.327Z,36.92
2022-11-23T16:29:34.455Z,33.45
2022-11-23T16:32:02.985Z,34.88
2022-11-23T16:34:30.295Z,42.30
2022-11-23T16:36:59.200Z,43.58
2022-11-23T16:39:27.608Z,34.58
2022-11-23T16:41:54.682Z,38.13
2022-11-23T16:44:21.844Z,39.50
2022-11-23T16:46:48.852Z,42.40
2022-11-23T16:49:23.830Z,31.70
2022-11-23T16:51:57.011Z,36.30
2022-11-23T16:54:25.274Z,35.40
2022-11-23T16:56:52.828Z,37.25
2022-11-23T16:59:20.234Z,29.42
2022-11-23T17:01:53.925Z,32.53
2022-11-23T17:04:24.160Z,27.05
2022-11-23T17:06:51.023Z,34.35
2022-11-23T17:09:17.894Z,27.15
2022-11-23T17:11:47.644Z,27.77
2022-11-23T17:14:18.895Z,34.00
2022-11-23T17:16:47.167Z,30.15
2022-11-23T17:19:18.920Z,26.45
2022-11-23T17:21:45.967Z,35.35
2022-11-23T17:24:14.026Z,32.60
2022-11-23T17:26:44.379Z,32.50
2022-11-23T17:29:14.780Z,38.58
2022-11-23T17:31:43.619Z,43.85
2022-11-23T17:34:10.574Z,33.50
2022-11-23T17:36:37.718Z,35.20
2022-11-23T17:39:04.840Z,37.53
2022-11-23T17:41:31.916Z,40.67
2022-11-23T17:43:59.982Z,33.95
2022-11-23T17:46:31.528Z,35.30
2022-11-23T17:48:59.098Z,37.00
2022-11-23T17:51:26.127Z,40.90
2022-11-23T17:53:52.925Z,42.38
2022-11-23T17:56:22.735Z,37.67
2022-11-23T17:58:50.451Z,41.38
2022-11-23T18:01:19.280Z,40.25
2022-11-23T18:03:46.493Z,36.25
2022-11-23T18:06:19.852Z,41.25
2022-11-23T18:08:47.731Z,43.38
2022-11-23T18:11:15.562Z,36.80
2022-11-23T18:13:43.199Z,32.53
2022-11-23T18:16:10.966Z,36.30
2022-11-23T18:18:38.261Z,35.83
2022-11-23T18:21:05.769Z,41.38
2022-11-23T18:23:33.254Z,45.53
2022-11-23T18:25:59.968Z,37.72
2022-11-23T18:28:27.454Z,37.63
2022-11-23T18:30:55.092Z,44.72
2022-11-23T18:33:22.848Z,40.90
2022-11-23T18:35:50.344Z,35.05
2022-11-23T18:38:17.218Z,40.95
2022-11-23T18:40:44.043Z,36.85
2022-11-23T18:43:10.834Z,33.38
2022-11-23T18:45:37.783Z,38.47
2022-11-23T18:48:05.217Z,37.30
2022-11-23T18:50:32.008Z,40.13
2022-11-23T18:52:58.884Z,38.88
2022-11-23T18:55:25.687Z,36.97
2022-11-23T18:57:55.794Z,35.55
2022-11-23T19:00:22.933Z,32.38
2022-11-23T19:03:00.474Z,36.15
2022-11-23T19:05:30.647Z,35.28
2022-11-23T19:08:09.888Z,38.45
2022-11-23T19:10:38.458Z,43.20
2022-11-23T19:13:06.203Z,35.22
2022-11-23T19:15:33.594Z,38.72
2022-11-23T19:18:01.013Z,33.65
2022-11-23T19:20:29.000Z,42.03
2022-11-23T19:22:56.029Z,40.08
2022-11-23T19:25:23.128Z,40.42
2022-11-23T19:27:51.464Z,41.85
2022-11-23T19:30:18.789Z,41.65
2022-11-23T19:32:45.633Z,42.83
2022-11-23T19:35:12.592Z,42.50
2022-11-23T19:37:39.590Z,48.10
2022-11-23T19:40:07.480Z,49.63
2022-11-23T19:42:35.736Z,38.15
2022-11-23T19:45:03.709Z,44.92
2022-11-23T19:47:31.578Z,36.38
2022-11-23T19:49:59.267Z,34.33
2022-11-23T19:52:48.007Z,42.25
2022-11-23T19:55:16.044Z,33.58
2022-11-23T19:57:43.064Z,38.67
2022-11-23T20:00:10.486Z,40.63
2022-11-23T20:02:37.261Z,39.42
2022-11-23T20:05:04.310Z,43.60
2022-11-23T20:07:31.731Z,34.13
2022-11-23T20:09:58.561Z,35.30
2022-11-23T20:12:25.363Z,32.83
2022-11-23T20:14:52.197Z,37.42
2022-11-23T20:17:19.051Z,37.03
2022-11-23T20:19:45.829Z,37.97
2022-11-23T20:22:13.091Z,41.72
2022-11-23T20:24:39.906Z,40.38
2022-11-23T20:27:06.676Z,40.38
2022-11-23T20:29:33.810Z,38.67
2022-11-23T20:32:00.848Z,38.65
2022-11-23T20:34:27.818Z,34.92
2022-11-23T20:36:54.663Z,37.22
2022-11-23T20:39:21.655Z,44.85
2022-11-23T20:41:49.891Z,41.60
2022-11-23T20:44:16.873Z,37.65
2022-11-23T20:49:31.580Z,46.05
2022-11-23T20:51:58.981Z,47.17
2022-11-23T20:54:25.764Z,42.38
2022-11-23T20:56:52.565Z,33.53
2022-11-23T20:59:20.297Z,39.72
2022-11-23T21:01:47.125Z,45.70
2022-11-23T21:04:14.010Z,44.10
2022-11-23T21:06:40.878Z,35.15
2022-11-23T21:09:09.686Z,43.67
2022-11-23T21:11:55.330Z,34.55
2022-11-23T21:14:24.675Z,37.03
2022-11-23T21:16:58.375Z,46.55
2022-11-23T21:19:33.805Z,39.15
2022-11-23T21:22:19.006Z,36.75
2022-11-23T21:24:45.830Z,37.15
2022-11-23T21:27:13.483Z,42.53
2022-11-23T21:29:40.598Z,40.55
2022-11-23T21:32:07.407Z,40.88
2022-11-23T21:34:34.579Z,38.92
2022-11-23T21:37:01.709Z,49.13
2022-11-23T21:39:31.356Z,35.65
2022-11-23T21:41:58.196Z,33.72
2022-11-23T21:44:25.022Z,34.25
2022-11-23T21:46:52.148Z,34.35
2022-11-23T21:49:19.006Z,33.10
2022-11-23T21:51:46.016Z,30.17
2022-11-23T21:54:16.447Z,27.42
2022-11-23T21:56:44.781Z,33.28
2022-11-23T21:59:12.427Z,32.08
2022-11-23T22:07:08.536Z,32.75
2022-11-23T22:09:35.632Z,36.08
2022-11-23T22:12:02.602Z,36.00
2022-11-23T22:14:29.650Z,35.10
2022-11-23T22:16:57.511Z,29.52
2022-11-23T22:19:24.502Z,29.23
2022-11-23T22:21:51.477Z,28.23
2022-11-23T22:24:19.752Z,29.75
2022-11-23T22:26:48.024Z,34.72
2022-11-23T22:29:15.990Z,27.02
2022-11-23T22:31:44.002Z,33.50
2022-11-23T22:34:13.331Z,29.63
2022-11-23T22:36:40.905Z,30.92
2022-11-23T22:39:08.641Z,34.15
2022-11-23T22:41:39.420Z,32.53
2022-11-23T22:44:08.946Z,37.80
2022-11-23T22:46:37.430Z,37.60
2022-11-23T22:49:04.694Z,32.38
2022-11-23T22:51:31.751Z,29.33
2022-11-23T22:54:00.591Z,35.30
2022-11-23T22:56:29.572Z,29.27
2022-11-23T22:58:56.889Z,27.83
2022-11-23T23:01:29.437Z,31.73
2022-11-23T23:03:59.111Z,36.50
2022-11-23T23:06:28.667Z,32.78
2022-11-23T23:08:58.081Z,36.58
2022-11-23T23:11:26.834Z,38.40
2022-11-23T23:13:54.683Z,36.55
2022-11-23T23:16:22.338Z,47.83
2022-11-23T23:18:49.741Z,30.27
2022-11-23T23:21:19.242Z,33.95
2022-11-23T23:23:48.540Z,34.38
2022-11-23T23:26:17.461Z,28.38
2022-11-23T23:28:44.881Z,33.20
2022-11-23T23:31:14.215Z,33.20
2022-11-23T23:33:41.797Z,29.60
2022-11-23T23:36:10.584Z,32.08
2022-11-23T23:38:38.208Z,30.73
2022-11-23T23:41:06.877Z,32.65
2022-11-23T23:43:34.289Z,30.13
2022-11-23T23:46:03.311Z,35.25
2022-11-23T23:48:32.525Z,26.70
2022-11-23T23:51:04.872Z,26.55
2022-11-23T23:53:34.222Z,34.80
2022-11-23T23:56:03.663Z,25.80
2022-11-23T23:58:31.566Z,26.83
